Fort Lee, Virginia
Current Conditions -  °F | °C
As of 9:15 AM on Thursday 23 Oct 2014 (Local Time) from KPTB Reporting Station
Broken Clouds Broken Clouds  
Wind Chill: 52°   Ceiling: 7500
Heat Index: 52°   Visibility: 10mi
Dew Point: 40°   Wind: 8mph
Humidity: 63%   Direction: 300°WNW
Pressure: 29.96"   Gusts: NA
Location:  37.24°N, 77.34°W
Report Text: KPTB 231315Z AUTO 30007KT 10SM BKN075 11/04 A2996 RMK AO2 T01100043
Loading
Personal Weather Stations






























Interactive Weather Map
Tropical Storm Tracking
New forecast layout! Learn more

10-Day Weather Forecast

Advertisements
Track Severe Weather on mobile